sensor_id;sensor_type;location;lat;lon;timestamp;temperature;humidity
12166;DHT22;6146;48.128;11.476;2023-04-26T00:00:42;6.40;99.90
12166;DHT22;6146;48.128;11.476;2023-04-26T00:03:08;6.50;99.90
12166;DHT22;6146;48.128;11.476;2023-04-26T00:05:33;6.50;99.90
12166;DHT22;6146;48.128;11.476;2023-04-26T00:08:00;6.50;99.90
12166;DHT22;6146;48.128;11.476;2023-04-26T00:10:25;6.50;99.90
12166;DHT22;6146;48.128;11.476;2023-04-26T00:12:51;6.50;99.90
12166;DHT22;6146;48.128;11.476;2023-04-26T00:15:17;6.50;99.90
12166;DHT22;6146;48.128;11.476;2023-04-26T00:17:42;6.40;99.90
12166;DHT22;6146;48.128;11.476;2023-04-26T00:20:08;6.40;99.90
12166;DHT22;6146;48.128;11.476;2023-04-26T00:22:36;6.40;99.90
12166;DHT22;6146;48.128;11.476;2023-04-26T00:25:01;6.30;99.90
12166;DHT22;6146;48.128;11.476;2023-04-26T00:27:27;6.40;99.90
12166;DHT22;6146;48.128;11.476;2023-04-26T00:29:53;6.40;99.90
12166;DHT22;6146;48.128;11.476;2023-04-26T00:32:18;6.40;99.90
12166;DHT22;6146;48.128;11.476;2023-04-26T00:34:44;6.40;99.90
12166;DHT22;6146;48.128;11.476;2023-04-26T00:37:09;6.40;99.90
12166;DHT22;6146;48.128;11.476;2023-04-26T00:39:35;6.40;99.90
12166;DHT22;6146;48.128;11.476;2023-04-26T00:42:01;6.40;99.90
12166;DHT22;6146;48.128;11.476;2023-04-26T00:44:26;6.40;99.90
12166;DHT22;6146;48.128;11.476;2023-04-26T00:46:52;6.40;99.90
12166;DHT22;6146;48.128;11.476;2023-04-26T00:49:22;6.40;99.90
12166;DHT22;6146;48.128;11.476;2023-04-26T00:51:49;6.40;99.90
12166;DHT22;6146;48.128;11.476;2023-04-26T00:54:16;6.40;99.90
12166;DHT22;6146;48.128;11.476;2023-04-26T00:56:42;6.30;99.90
12166;DHT22;6146;48.128;11.476;2023-04-26T00:59:08;6.20;99.90
12166;DHT22;6146;48.128;11.476;2023-04-26T01:01:34;6.10;99.90
12166;DHT22;6146;48.128;11.476;2023-04-26T01:04:00;6.20;99.90
12166;DHT22;6146;48.128;11.476;2023-04-26T01:06:32;6.10;99.90
12166;DHT22;6146;48.128;11.476;2023-04-26T01:09:02;6.20;99.90
12166;DHT22;6146;48.128;11.476;2023-04-26T01:11:29;6.10;99.90
12166;DHT22;6146;48.128;11.476;2023-04-26T01:13:55;6.10;99.90
12166;DHT22;6146;48.128;11.476;2023-04-26T01:16:22;6.10;99.90
12166;DHT22;6146;48.128;11.476;2023-04-26T01:18:51;6.10;99.90
12166;DHT22;6146;48.128;11.476;2023-04-26T01:21:21;6.00;99.90
12166;DHT22;6146;48.128;11.476;2023-04-26T01:23:48;6.10;99.90
12166;DHT22;6146;48.128;11.476;2023-04-26T01:26:14;6.10;99.90
12166;DHT22;6146;48.128;11.476;2023-04-26T01:28:39;6.10;99.90
12166;DHT22;6146;48.128;11.476;2023-04-26T01:31:05;6.00;99.90
12166;DHT22;6146;48.128;11.476;2023-04-26T01:33:31;6.00;99.90
12166;DHT22;6146;48.128;11.476;2023-04-26T01:35:57;6.00;99.90
12166;DHT22;6146;48.128;11.476;2023-04-26T01:38:22;6.00;99.90
12166;DHT22;6146;48.128;11.476;2023-04-26T01:40:48;6.00;99.90
12166;DHT22;6146;48.128;11.476;2023-04-26T01:43:13;6.00;99.90
12166;DHT22;6146;48.128;11.476;2023-04-26T01:45:40;5.90;99.90
12166;DHT22;6146;48.128;11.476;2023-04-26T01:48:06;6.00;99.90
12166;DHT22;6146;48.128;11.476;2023-04-26T01:50:31;6.00;99.90
12166;DHT22;6146;48.128;11.476;2023-04-26T01:52:57;5.90;99.90
12166;DHT22;6146;48.128;11.476;2023-04-26T01:55:22;5.90;99.90
12166;DHT22;6146;48.128;11.476;2023-04-26T01:57:48;5.80;99.90
12166;DHT22;6146;48.128;11.476;2023-04-26T02:00:14;5.80;99.90
12166;DHT22;6146;48.128;11.476;2023-04-26T02:02:39;5.70;99.90
12166;DHT22;6146;48.128;11.476;2023-04-26T02:05:07;5.70;99.90
12166;DHT22;6146;48.128;11.476;2023-04-26T02:07:33;5.70;99.90
12166;DHT22;6146;48.128;11.476;2023-04-26T02:09:59;5.70;99.90
12166;DHT22;6146;48.128;11.476;2023-04-26T02:12:24;5.70;99.90
12166;DHT22;6146;48.128;11.476;2023-04-26T02:14:50;5.60;99.90
12166;DHT22;6146;48.128;11.476;2023-04-26T02:17:15;5.70;99.90
12166;DHT22;6146;48.128;11.476;2023-04-26T02:19:41;5.70;99.90
12166;DHT22;6146;48.128;11.476;2023-04-26T02:22:07;5.60;99.90
12166;DHT22;6146;48.128;11.476;2023-04-26T02:24:32;5.50;99.90
12166;DHT22;6146;48.128;11.476;2023-04-26T02:26:58;5.50;99.90
12166;DHT22;6146;48.128;11.476;2023-04-26T02:29:28;5.40;99.90
12166;DHT22;6146;48.128;11.476;2023-04-26T02:31:53;5.40;99.90
12166;DHT22;6146;48.128;11.476;2023-04-26T02:34:19;5.40;99.90
12166;DHT22;6146;48.128;11.476;2023-04-26T02:36:45;5.30;99.90
12166;DHT22;6146;48.128;11.476;2023-04-26T02:39:11;5.20;99.90
12166;DHT22;6146;48.128;11.476;2023-04-26T02:41:36;5.20;99.90
12166;DHT22;6146;48.128;11.476;2023-04-26T02:44:02;5.10;99.90
12166;DHT22;6146;48.128;11.476;2023-04-26T02:46:27;5.10;99.90
12166;DHT22;6146;48.128;11.476;2023-04-26T02:48:53;5.10;99.90
12166;DHT22;6146;48.128;11.476;2023-04-26T02:51:18;5.10;99.90
12166;DHT22;6146;48.128;11.476;2023-04-26T02:53:44;5.10;99.90
12166;DHT22;6146;48.128;11.476;2023-04-26T02:56:10;5.10;99.90
12166;DHT22;6146;48.128;11.476;2023-04-26T02:58:35;5.00;99.90
12166;DHT22;6146;48.128;11.476;2023-04-26T03:01:01;5.10;99.90
12166;DHT22;6146;48.128;11.476;2023-04-26T03:03:28;5.10;99.90
12166;DHT22;6146;48.128;11.476;2023-04-26T03:05:55;5.10;99.90
12166;DHT22;6146;48.128;11.476;2023-04-26T03:08:20;5.10;99.90
12166;DHT22;6146;48.128;11.476;2023-04-26T03:10:46;5.10;99.90
12166;DHT22;6146;48.128;11.476;2023-04-26T03:13:11;5.20;99.90
12166;DHT22;6146;48.128;11.476;2023-04-26T03:15:37;5.20;99.90
12166;DHT22;6146;48.128;11.476;2023-04-26T03:18:03;5.20;99.90
12166;DHT22;6146;48.128;11.476;2023-04-26T03:20:28;5.20;99.90
12166;DHT22;6146;48.128;11.476;2023-04-26T03:22:54;5.20;99.90
12166;DHT22;6146;48.128;11.476;2023-04-26T03:25:20;5.20;99.90
12166;DHT22;6146;48.128;11.476;2023-04-26T03:27:45;5.30;99.90
12166;DHT22;6146;48.128;11.476;2023-04-26T03:30:11;5.30;99.90
12166;DHT22;6146;48.128;11.476;2023-04-26T03:32:37;5.30;99.90
12166;DHT22;6146;48.128;11.476;2023-04-26T03:35:03;5.30;99.90
12166;DHT22;6146;48.128;11.476;2023-04-26T03:37:29;5.30;99.90
12166;DHT22;6146;48.128;11.476;2023-04-26T03:39:54;5.30;99.90
12166;DHT22;6146;48.128;11.476;2023-04-26T03:42:20;5.40;99.90
12166;DHT22;6146;48.128;11.476;2023-04-26T03:44:45;5.40;99.90
12166;DHT22;6146;48.128;11.476;2023-04-26T03:47:11;5.40;99.90
12166;DHT22;6146;48.128;11.476;2023-04-26T03:49:39;5.40;99.90
12166;DHT22;6146;48.128;11.476;2023-04-26T03:52:05;5.30;99.90
12166;DHT22;6146;48.128;11.476;2023-04-26T03:54:30;5.30;99.90
12166;DHT22;6146;48.128;11.476;2023-04-26T03:56:56;5.20;99.90
12166;DHT22;6146;48.128;11.476;2023-04-26T03:59:21;5.20;99.90
12166;DHT22;6146;48.128;11.476;2023-04-26T04:01:47;5.20;99.90
12166;DHT22;6146;48.128;11.476;2023-04-26T04:04:12;5.20;99.90
12166;DHT22;6146;48.128;11.476;2023-04-26T04:06:38;5.20;99.90
12166;DHT22;6146;48.128;11.476;2023-04-26T04:09:04;5.20;99.90
12166;DHT22;6146;48.128;11.476;2023-04-26T04:11:32;5.20;99.90
12166;DHT22;6146;48.128;11.476;2023-04-26T04:13:58;5.20;99.90
12166;DHT22;6146;48.128;11.476;2023-04-26T04:16:24;5.20;99.90
12166;DHT22;6146;48.128;11.476;2023-04-26T04:18:50;5.20;99.90
12166;DHT22;6146;48.128;11.476;2023-04-26T04:21:15;5.20;99.90
12166;DHT22;6146;48.128;11.476;2023-04-26T04:23:42;5.20;99.90
12166;DHT22;6146;48.128;11.476;2023-04-26T04:26:08;5.30;99.90
12166;DHT22;6146;48.128;11.476;2023-04-26T04:28:34;5.20;99.90
12166;DHT22;6146;48.128;11.476;2023-04-26T04:30:59;5.20;99.90
12166;DHT22;6146;48.128;11.476;2023-04-26T04:33:25;5.20;99.90
12166;DHT22;6146;48.128;11.476;2023-04-26T04:35:53;5.30;99.90
12166;DHT22;6146;48.128;11.476;2023-04-26T04:38:19;5.30;99.90
12166;DHT22;6146;48.128;11.476;2023-04-26T04:40:47;5.40;99.90
12166;DHT22;6146;48.128;11.476;2023-04-26T04:43:14;5.40;99.90
12166;DHT22;6146;48.128;11.476;2023-04-26T04:45:40;5.40;99.90
12166;DHT22;6146;48.128;11.476;2023-04-26T04:48:05;5.30;99.90
12166;DHT22;6146;48.128;11.476;2023-04-26T04:50:31;5.40;99.90
12166;DHT22;6146;48.128;11.476;2023-04-26T04:52:56;5.40;99.90
12166;DHT22;6146;48.128;11.476;2023-04-26T04:55:22;5.50;99.90
12166;DHT22;6146;48.128;11.476;2023-04-26T04:57:48;5.50;99.90
12166;DHT22;6146;48.128;11.476;2023-04-26T05:00:13;5.60;99.90
12166;DHT22;6146;48.128;11.476;2023-04-26T05:02:40;5.60;99.90
12166;DHT22;6146;48.128;11.476;2023-04-26T05:05:06;5.70;99.90
12166;DHT22;6146;48.128;11.476;2023-04-26T05:07:32;5.70;99.90
12166;DHT22;6146;48.128;11.476;2023-04-26T05:09:57;5.70;99.90
12166;DHT22;6146;48.128;11.476;2023-04-26T05:12:23;5.70;99.90
12166;DHT22;6146;48.128;11.476;2023-04-26T05:14:49;5.80;99.90
12166;DHT22;6146;48.128;11.476;2023-04-26T05:17:14;5.80;99.90
12166;DHT22;6146;48.128;11.476;2023-04-26T05:19:40;5.90;99.90
12166;DHT22;6146;48.128;11.476;2023-04-26T05:22:06;5.90;99.90
12166;DHT22;6146;48.128;11.476;2023-04-26T05:24:31;6.10;99.90
12166;DHT22;6146;48.128;11.476;2023-04-26T05:26:58;6.10;99.90
12166;DHT22;6146;48.128;11.476;2023-04-26T05:29:27;6.20;99.90
12166;DHT22;6146;48.128;11.476;2023-04-26T05:31:53;6.20;99.90
12166;DHT22;6146;48.128;11.476;2023-04-26T05:34:18;6.30;99.90
12166;DHT22;6146;48.128;11.476;2023-04-26T05:36:44;6.30;99.90
12166;DHT22;6146;48.128;11.476;2023-04-26T05:39:10;6.30;99.90
12166;DHT22;6146;48.128;11.476;2023-04-26T05:41:36;6.30;99.90
12166;DHT22;6146;48.128;11.476;2023-04-26T05:44:02;6.50;99.90
12166;DHT22;6146;48.128;11.476;2023-04-26T05:46:28;6.40;99.90
12166;DHT22;6146;48.128;11.476;2023-04-26T05:48:53;6.50;99.90
12166;DHT22;6146;48.128;11.476;2023-04-26T05:51:20;6.50;99.90
12166;DHT22;6146;48.128;11.476;2023-04-26T05:53:45;6.50;99.90
12166;DHT22;6146;48.128;11.476;2023-04-26T05:56:11;6.80;99.90
12166;DHT22;6146;48.128;11.476;2023-04-26T05:58:36;7.10;99.90
12166;DHT22;6146;48.128;11.476;2023-04-26T06:01:02;7.20;99.90
12166;DHT22;6146;48.128;11.476;2023-04-26T06:03:27;7.20;99.90
12166;DHT22;6146;48.128;11.476;2023-04-26T06:05:53;7.20;99.90
12166;DHT22;6146;48.128;11.476;2023-04-26T06:08:18;7.20;99.90
12166;DHT22;6146;48.128;11.476;2023-04-26T06:10:44;7.20;99.90
12166;DHT22;6146;48.128;11.476;2023-04-26T06:13:11;7.30;99.90
12166;DHT22;6146;48.128;11.476;2023-04-26T06:15:37;7.30;99.90
12166;DHT22;6146;48.128;11.476;2023-04-26T06:18:04;7.30;99.90
12166;DHT22;6146;48.128;11.476;2023-04-26T06:20:30;7.30;99.90
12166;DHT22;6146;48.128;11.476;2023-04-26T06:22:55;7.50;99.90
12166;DHT22;6146;48.128;11.476;2023-04-26T06:25:21;7.60;99.90
12166;DHT22;6146;48.128;11.476;2023-04-26T06:27:47;7.90;99.90
12166;DHT22;6146;48.128;11.476;2023-04-26T06:30:12;8.60;99.90
12166;DHT22;6146;48.128;11.476;2023-04-26T06:32:40;9.60;99.90
12166;DHT22;6146;48.128;11.476;2023-04-26T06:35:05;11.10;99.90
12166;DHT22;6146;48.128;11.476;2023-04-26T06:37:31;12.80;99.90
12166;DHT22;6146;48.128;11.476;2023-04-26T06:39:57;13.20;99.90
12166;DHT22;6146;48.128;11.476;2023-04-26T06:42:23;14.20;99.90
12166;DHT22;6146;48.128;11.476;2023-04-26T06:44:48;15.20;99.90
12166;DHT22;6146;48.128;11.476;2023-04-26T06:47:14;16.00;99.90
12166;DHT22;6146;48.128;11.476;2023-04-26T06:49:39;17.50;99.90
12166;DHT22;6146;48.128;11.476;2023-04-26T06:52:05;17.50;98.10
12166;DHT22;6146;48.128;11.476;2023-04-26T06:54:31;16.90;97.10
12166;DHT22;6146;48.128;11.476;2023-04-26T06:56:57;17.10;96.80
12166;DHT22;6146;48.128;11.476;2023-04-26T06:59:22;18.10;93.10
12166;DHT22;6146;48.128;11.476;2023-04-26T07:01:48;18.20;93.00
12166;DHT22;6146;48.128;11.476;2023-04-26T07:04:14;18.40;92.00
12166;DHT22;6146;48.128;11.476;2023-04-26T07:06:41;17.80;92.30
12166;DHT22;6146;48.128;11.476;2023-04-26T07:09:06;17.10;93.00
12166;DHT22;6146;48.128;11.476;2023-04-26T07:11:33;16.60;93.00
12166;DHT22;6146;48.128;11.476;2023-04-26T07:13:58;15.70;93.60
12166;DHT22;6146;48.128;11.476;2023-04-26T07:16:25;14.70;95.90
12166;DHT22;6146;48.128;11.476;2023-04-26T07:18:51;13.70;97.50
12166;DHT22;6146;48.128;11.476;2023-04-26T07:21:17;12.80;99.90
12166;DHT22;6146;48.128;11.476;2023-04-26T07:23:43;12.40;99.90
12166;DHT22;6146;48.128;11.476;2023-04-26T07:26:11;12.30;99.90
12166;DHT22;6146;48.128;11.476;2023-04-26T07:28:37;12.10;99.90
12166;DHT22;6146;48.128;11.476;2023-04-26T07:31:03;12.00;99.90
12166;DHT22;6146;48.128;11.476;2023-04-26T07:33:29;11.80;99.90
12166;DHT22;6146;48.128;11.476;2023-04-26T07:35:57;11.70;99.90
12166;DHT22;6146;48.128;11.476;2023-04-26T07:38:23;12.60;99.90
12166;DHT22;6146;48.128;11.476;2023-04-26T07:40:49;13.90;99.90
12166;DHT22;6146;48.128;11.476;2023-04-26T07:43:16;15.00;99.90
12166;DHT22;6146;48.128;11.476;2023-04-26T07:45:42;16.50;97.40
12166;DHT22;6146;48.128;11.476;2023-04-26T07:48:08;17.50;95.70
12166;DHT22;6146;48.128;11.476;2023-04-26T07:50:33;17.80;92.80
12166;DHT22;6146;48.128;11.476;2023-04-26T07:52:59;17.20;92.80
12166;DHT22;6146;48.128;11.476;2023-04-26T07:55:24;16.40;93.40
12166;DHT22;6146;48.128;11.476;2023-04-26T07:57:50;15.10;95.80
12166;DHT22;6146;48.128;11.476;2023-04-26T08:00:16;14.20;99.30
12166;DHT22;6146;48.128;11.476;2023-04-26T08:02:43;13.90;99.80
12166;DHT22;6146;48.128;11.476;2023-04-26T08:05:10;14.80;99.90
12166;DHT22;6146;48.128;11.476;2023-04-26T08:07:36;16.30;97.70
12166;DHT22;6146;48.128;11.476;2023-04-26T08:10:01;16.70;94.90
12166;DHT22;6146;48.128;11.476;2023-04-26T08:12:27;16.80;95.40
12166;DHT22;6146;48.128;11.476;2023-04-26T08:14:53;17.10;95.90
12166;DHT22;6146;48.128;11.476;2023-04-26T08:17:18;17.70;94.70
12166;DHT22;6146;48.128;11.476;2023-04-26T08:19:44;17.90;91.90
12166;DHT22;6146;48.128;11.476;2023-04-26T08:22:10;17.60;92.50
12166;DHT22;6146;48.128;11.476;2023-04-26T08:24:35;16.80;94.40
12166;DHT22;6146;48.128;11.476;2023-04-26T08:27:01;16.20;94.90
12166;DHT22;6146;48.128;11.476;2023-04-26T08:29:26;16.10;92.70
12166;DHT22;6146;48.128;11.476;2023-04-26T08:31:52;16.00;93.30
12166;DHT22;6146;48.128;11.476;2023-04-26T08:34:18;15.60;94.50
12166;DHT22;6146;48.128;11.476;2023-04-26T08:36:43;14.70;95.60
12166;DHT22;6146;48.128;11.476;2023-04-26T08:39:10;14.20;96.50
12166;DHT22;6146;48.128;11.476;2023-04-26T08:41:43;13.80;97.80
12166;DHT22;6146;48.128;11.476;2023-04-26T08:44:10;14.20;97.70
12166;DHT22;6146;48.128;11.476;2023-04-26T08:46:43;14.40;95.30
12166;DHT22;6146;48.128;11.476;2023-04-26T08:49:21;14.10;95.60
12166;DHT22;6146;48.128;11.476;2023-04-26T08:51:50;14.20;96.10
12166;DHT22;6146;48.128;11.476;2023-04-26T08:54:18;14.50;96.40
12166;DHT22;6146;48.128;11.476;2023-04-26T08:56:45;14.50;95.70
12166;DHT22;6146;48.128;11.476;2023-04-26T08:59:12;15.10;93.80
12166;DHT22;6146;48.128;11.476;2023-04-26T09:01:41;16.30;93.30
12166;DHT22;6146;48.128;11.476;2023-04-26T09:04:07;17.70;90.40
12166;DHT22;6146;48.128;11.476;2023-04-26T09:06:34;20.10;77.00
12166;DHT22;6146;48.128;11.476;2023-04-26T09:09:02;20.00;74.60
12166;DHT22;6146;48.128;11.476;2023-04-26T09:11:29;19.00;78.90
12166;DHT22;6146;48.128;11.476;2023-04-26T09:13:55;17.80;84.90
12166;DHT22;6146;48.128;11.476;2023-04-26T09:16:34;17.00;89.40
12166;DHT22;6146;48.128;11.476;2023-04-26T09:19:01;16.20;87.30
12166;DHT22;6146;48.128;11.476;2023-04-26T09:21:26;15.40;91.20
12166;DHT22;6146;48.128;11.476;2023-04-26T09:24:00;14.80;93.90
12166;DHT22;6146;48.128;11.476;2023-04-26T09:26:29;14.30;93.50
12166;DHT22;6146;48.128;11.476;2023-04-26T09:29:15;13.60;95.10
12166;DHT22;6146;48.128;11.476;2023-04-26T09:31:43;13.10;97.70
12166;DHT22;6146;48.128;11.476;2023-04-26T09:34:10;12.90;98.10
12166;DHT22;6146;48.128;11.476;2023-04-26T09:36:49;12.70;95.90
12166;DHT22;6146;48.128;11.476;2023-04-26T09:39:33;12.70;97.50
12166;DHT22;6146;48.128;11.476;2023-04-26T09:41:58;12.60;97.50
12166;DHT22;6146;48.128;11.476;2023-04-26T09:44:24;12.70;98.20
12166;DHT22;6146;48.128;11.476;2023-04-26T09:47:03;12.50;99.40
12166;DHT22;6146;48.128;11.476;2023-04-26T09:49:43;12.50;98.00
12166;DHT22;6146;48.128;11.476;2023-04-26T09:52:09;12.50;98.10
12166;DHT22;6146;48.128;11.476;2023-04-26T09:54:50;12.40;97.40
12166;DHT22;6146;48.128;11.476;2023-04-26T09:57:17;12.10;98.80
12166;DHT22;6146;48.128;11.476;2023-04-26T09:59:48;12.00;99.50
12166;DHT22;6146;48.128;11.476;2023-04-26T10:02:18;12.00;99.90
12166;DHT22;6146;48.128;11.476;2023-04-26T10:04:45;11.90;99.90
12166;DHT22;6146;48.128;11.476;2023-04-26T10:07:13;11.80;99.90
12166;DHT22;6146;48.128;11.476;2023-04-26T10:09:39;12.00;99.90
12166;DHT22;6146;48.128;11.476;2023-04-26T10:12:07;12.50;99.90
12166;DHT22;6146;48.128;11.476;2023-04-26T10:14:33;13.20;99.00
12166;DHT22;6146;48.128;11.476;2023-04-26T10:17:01;15.10;96.70
12166;DHT22;6146;48.128;11.476;2023-04-26T10:19:28;17.80;93.70
12166;DHT22;6146;48.128;11.476;2023-04-26T10:22:01;20.40;83.80
12166;DHT22;6146;48.128;11.476;2023-04-26T10:24:28;21.60;73.10
12166;DHT22;6146;48.128;11.476;2023-04-26T10:26:54;21.20;66.80
12166;DHT22;6146;48.128;11.476;2023-04-26T10:29:25;22.00;66.00
12166;DHT22;6146;48.128;11.476;2023-04-26T10:34:28;24.40;58.10
12166;DHT22;6146;48.128;11.476;2023-04-26T10:37:14;25.10;56.60
12166;DHT22;6146;48.128;11.476;2023-04-26T10:39:42;24.60;54.80
12166;DHT22;6146;48.128;11.476;2023-04-26T10:47:32;25.60;51.10
12166;DHT22;6146;48.128;11.476;2023-04-26T10:50:06;24.40;50.50
12166;DHT22;6146;48.128;11.476;2023-04-26T10:52:33;23.20;52.10
12166;DHT22;6146;48.128;11.476;2023-04-26T10:54:59;22.50;54.20
12166;DHT22;6146;48.128;11.476;2023-04-26T10:57:47;22.50;51.60
12166;DHT22;6146;48.128;11.476;2023-04-26T11:00:18;22.90;51.60
12166;DHT22;6146;48.128;11.476;2023-04-26T11:02:56;23.60;51.40
12166;DHT22;6146;48.128;11.476;2023-04-26T11:05:41;23.80;50.60
12166;DHT22;6146;48.128;11.476;2023-04-26T11:08:17;22.90;50.70
12166;DHT22;6146;48.128;11.476;2023-04-26T11:10:48;21.20;54.00
12166;DHT22;6146;48.128;11.476;2023-04-26T11:13:16;20.90;53.80
12166;DHT22;6146;48.128;11.476;2023-04-26T11:15:42;20.60;55.60
12166;DHT22;6146;48.128;11.476;2023-04-26T11:18:07;21.40;54.00
12166;DHT22;6146;48.128;11.476;2023-04-26T11:20:33;21.60;54.40
12166;DHT22;6146;48.128;11.476;2023-04-26T11:22:59;22.10;53.30
12166;DHT22;6146;48.128;11.476;2023-04-26T11:25:26;22.00;51.90
12166;DHT22;6146;48.128;11.476;2023-04-26T11:27:57;21.90;53.40
12166;DHT22;6146;48.128;11.476;2023-04-26T11:30:23;21.60;53.90
12166;DHT22;6146;48.128;11.476;2023-04-26T11:32:48;20.80;55.80
12166;DHT22;6146;48.128;11.476;2023-04-26T11:35:14;19.60;56.60
12166;DHT22;6146;48.128;11.476;2023-04-26T11:37:40;18.50;59.60
12166;DHT22;6146;48.128;11.476;2023-04-26T11:40:09;17.70;61.40
12166;DHT22;6146;48.128;11.476;2023-04-26T11:42:35;16.90;64.70
12166;DHT22;6146;48.128;11.476;2023-04-26T11:45:01;17.00;66.50
12166;DHT22;6146;48.128;11.476;2023-04-26T11:47:32;18.50;62.00
12166;DHT22;6146;48.128;11.476;2023-04-26T11:49:57;20.30;58.60
12166;DHT22;6146;48.128;11.476;2023-04-26T11:52:23;20.80;56.10
12166;DHT22;6146;48.128;11.476;2023-04-26T11:54:49;20.70;56.60
12166;DHT22;6146;48.128;11.476;2023-04-26T11:57:17;20.00;57.30
12166;DHT22;6146;48.128;11.476;2023-04-26T11:59:43;19.20;58.70
12166;DHT22;6146;48.128;11.476;2023-04-26T12:02:08;18.60;57.60
12166;DHT22;6146;48.128;11.476;2023-04-26T12:04:36;17.70;60.70
12166;DHT22;6146;48.128;11.476;2023-04-26T12:07:03;18.10;61.00
12166;DHT22;6146;48.128;11.476;2023-04-26T12:09:29;18.90;60.50
12166;DHT22;6146;48.128;11.476;2023-04-26T12:11:57;19.50;57.40
12166;DHT22;6146;48.128;11.476;2023-04-26T12:14:33;20.00;57.20
12166;DHT22;6146;48.128;11.476;2023-04-26T12:16:59;20.00;55.90
12166;DHT22;6146;48.128;11.476;2023-04-26T12:19:26;19.80;56.90
12166;DHT22;6146;48.128;11.476;2023-04-26T12:21:51;19.30;57.80
12166;DHT22;6146;48.128;11.476;2023-04-26T12:24:21;18.20;62.50
12166;DHT22;6146;48.128;11.476;2023-04-26T12:26:47;17.80;64.10
12166;DHT22;6146;48.128;11.476;2023-04-26T12:29:13;17.70;65.20
12166;DHT22;6146;48.128;11.476;2023-04-26T12:31:38;17.50;61.40
12166;DHT22;6146;48.128;11.476;2023-04-26T12:34:04;17.20;61.90
12166;DHT22;6146;48.128;11.476;2023-04-26T12:36:30;16.90;66.00
12166;DHT22;6146;48.128;11.476;2023-04-26T12:38:56;16.30;69.30
12166;DHT22;6146;48.128;11.476;2023-04-26T12:41:22;15.90;71.00
12166;DHT22;6146;48.128;11.476;2023-04-26T12:43:48;15.70;73.10
12166;DHT22;6146;48.128;11.476;2023-04-26T12:46:14;15.30;74.10
12166;DHT22;6146;48.128;11.476;2023-04-26T12:48:39;15.10;75.20
12166;DHT22;6146;48.128;11.476;2023-04-26T12:51:05;15.30;74.00
12166;DHT22;6146;48.128;11.476;2023-04-26T12:53:31;16.10;71.00
12166;DHT22;6146;48.128;11.476;2023-04-26T12:55:57;16.80;72.70
12166;DHT22;6146;48.128;11.476;2023-04-26T12:58:22;17.00;67.50
12166;DHT22;6146;48.128;11.476;2023-04-26T13:00:48;17.00;65.70
12166;DHT22;6146;48.128;11.476;2023-04-26T13:03:15;16.80;65.50
12166;DHT22;6146;48.128;11.476;2023-04-26T13:05:42;16.50;68.00
12166;DHT22;6146;48.128;11.476;2023-04-26T13:08:07;16.10;66.90
12166;DHT22;6146;48.128;11.476;2023-04-26T13:10:33;16.20;67.90
12166;DHT22;6146;48.128;11.476;2023-04-26T13:12:58;15.80;70.20
12166;DHT22;6146;48.128;11.476;2023-04-26T13:15:24;15.90;68.10
12166;DHT22;6146;48.128;11.476;2023-04-26T13:17:51;16.10;70.00
12166;DHT22;6146;48.128;11.476;2023-04-26T13:20:17;16.30;72.40
12166;DHT22;6146;48.128;11.476;2023-04-26T13:22:42;16.80;70.60
12166;DHT22;6146;48.128;11.476;2023-04-26T13:25:08;16.90;67.80
12166;DHT22;6146;48.128;11.476;2023-04-26T13:27:37;16.90;66.10
12166;DHT22;6146;48.128;11.476;2023-04-26T13:30:04;16.80;66.70
12166;DHT22;6146;48.128;11.476;2023-04-26T13:32:29;16.40;68.50
12166;DHT22;6146;48.128;11.476;2023-04-26T13:34:56;16.40;67.60
12166;DHT22;6146;48.128;11.476;2023-04-26T13:37:21;16.60;64.40
12166;DHT22;6146;48.128;11.476;2023-04-26T13:39:48;16.80;65.10
12166;DHT22;6146;48.128;11.476;2023-04-26T13:42:14;17.00;66.10
12166;DHT22;6146;48.128;11.476;2023-04-26T13:44:40;16.90;63.60
12166;DHT22;6146;48.128;11.476;2023-04-26T13:47:06;16.70;65.90
12166;DHT22;6146;48.128;11.476;2023-04-26T13:49:31;15.70;64.80
12166;DHT22;6146;48.128;11.476;2023-04-26T13:51:57;16.40;65.90
12166;DHT22;6146;48.128;11.476;2023-04-26T13:54:23;16.10;68.60
12166;DHT22;6146;48.128;11.476;2023-04-26T13:56:50;16.00;69.50
12166;DHT22;6146;48.128;11.476;2023-04-26T13:59:16;16.30;67.30
12166;DHT22;6146;48.128;11.476;2023-04-26T14:01:43;16.70;68.40
12166;DHT22;6146;48.128;11.476;2023-04-26T14:04:08;17.10;67.20
12166;DHT22;6146;48.128;11.476;2023-04-26T14:06:34;17.40;64.40
12166;DHT22;6146;48.128;11.476;2023-04-26T14:09:00;17.40;62.40
12166;DHT22;6146;48.128;11.476;2023-04-26T14:11:26;17.50;61.00
12166;DHT22;6146;48.128;11.476;2023-04-26T14:13:52;17.50;62.30
12166;DHT22;6146;48.128;11.476;2023-04-26T14:16:22;17.50;63.00
12166;DHT22;6146;48.128;11.476;2023-04-26T14:18:48;17.60;61.50
12166;DHT22;6146;48.128;11.476;2023-04-26T14:21:13;17.70;61.90
12166;DHT22;6146;48.128;11.476;2023-04-26T14:23:39;17.80;60.90
12166;DHT22;6146;48.128;11.476;2023-04-26T14:26:05;17.70;62.40
12166;DHT22;6146;48.128;11.476;2023-04-26T14:28:30;17.60;60.50
12166;DHT22;6146;48.128;11.476;2023-04-26T14:30:56;17.40;58.10
12166;DHT22;6146;48.128;11.476;2023-04-26T14:33:21;16.70;59.70
12166;DHT22;6146;48.128;11.476;2023-04-26T14:35:47;16.40;65.10
12166;DHT22;6146;48.128;11.476;2023-04-26T14:38:13;16.00;66.80
12166;DHT22;6146;48.128;11.476;2023-04-26T14:40:38;15.80;67.80
12166;DHT22;6146;48.128;11.476;2023-04-26T14:43:04;15.80;67.90
12166;DHT22;6146;48.128;11.476;2023-04-26T14:45:30;15.80;67.30
12166;DHT22;6146;48.128;11.476;2023-04-26T14:48:01;15.80;70.10
12166;DHT22;6146;48.128;11.476;2023-04-26T14:50:27;15.60;69.90
12166;DHT22;6146;48.128;11.476;2023-04-26T14:52:53;15.50;70.50
12166;DHT22;6146;48.128;11.476;2023-04-26T14:55:20;15.50;69.80
12166;DHT22;6146;48.128;11.476;2023-04-26T14:57:47;15.30;70.80
12166;DHT22;6146;48.128;11.476;2023-04-26T15:00:13;15.10;72.20
12166;DHT22;6146;48.128;11.476;2023-04-26T15:02:41;15.20;72.90
12166;DHT22;6146;48.128;11.476;2023-04-26T15:05:08;15.20;72.50
12166;DHT22;6146;48.128;11.476;2023-04-26T15:07:35;15.10;73.70
12166;DHT22;6146;48.128;11.476;2023-04-26T15:10:00;14.80;72.90
12166;DHT22;6146;48.128;11.476;2023-04-26T15:12:26;14.90;72.70
12166;DHT22;6146;48.128;11.476;2023-04-26T15:14:52;14.90;72.70
12166;DHT22;6146;48.128;11.476;2023-04-26T15:17:18;14.80;75.20
12166;DHT22;6146;48.128;11.476;2023-04-26T15:19:43;15.10;74.80
12166;DHT22;6146;48.128;11.476;2023-04-26T15:22:09;15.20;73.10
12166;DHT22;6146;48.128;11.476;2023-04-26T15:24:37;15.40;71.80
12166;DHT22;6146;48.128;11.476;2023-04-26T15:27:03;15.60;71.70
12166;DHT22;6146;48.128;11.476;2023-04-26T15:29:33;15.60;68.20
12166;DHT22;6146;48.128;11.476;2023-04-26T15:31:58;15.70;70.80
12166;DHT22;6146;48.128;11.476;2023-04-26T15:34:24;15.90;72.30
12166;DHT22;6146;48.128;11.476;2023-04-26T15:36:51;15.80;69.30
12166;DHT22;6146;48.128;11.476;2023-04-26T15:39:16;15.90;70.10
12166;DHT22;6146;48.128;11.476;2023-04-26T15:41:42;15.70;70.00